Time;durP1;ratioP1;P1;durP2;ratioP2;P2;SDS_P1;SDS_P2;PMS_P1;PMS_P2;Temp;Humidity;BMP_temperature;BMP_pressure;BME280_temperature;BME280_humidity;BME280_pressure;Samples;Min_cycle;Max_cycle;Signal;HPM_P1;HPM_P2
2021/07/18 00:04:20;;;;;;;11.3;9;;;;;;;20.12;100;98283.95;;;;
2021/07/18 00:14:20;;;;;;;17.9;11.2;;;;;;;20.13;100;98297.27;;;;
2021/07/18 00:24:20;;;;;;;10.7;7.7;;;;;;;19.99;100;98316.28;;;;
2021/07/18 00:34:21;;;;;;;9.8;7;;;;;;;19.74;100;98348.84;;;;
2021/07/18 00:44:20;;;;;;;10.4;7.4;;;;;;;19.65;100;98320.98;;;;
2021/07/18 00:54:20;;;;;;;12.3;9.1;;;;;;;19.79;100;98323.88;;;;
2021/07/18 01:04:20;;;;;;;12.5;9.1;;;;;;;19.9;100;98291.17;;;;
2021/07/18 01:14:20;;;;;;;12.5;8.8;;;;;;;19.85;100;98322.41;;;;
2021/07/18 01:24:20;;;;;;;14.5;9.7;;;;;;;19.79;100;98321.14;;;;
2021/07/18 01:34:20;;;;;;;13.5;9.9;;;;;;;19.84;100;98323.55;;;;
2021/07/18 01:44:20;;;;;;;13;9.4;;;;;;;19.85;100;98352.48;;;;
2021/07/18 01:54:20;;;;;;;12.1;8.5;;;;;;;19.5;100;98365.73;;;;
2021/07/18 02:04:20;;;;;;;9.4;7.6;;;;;;;19.08;100;98353.05;;;;
2021/07/18 02:14:22;;;;;;;10.1;6.6;;;;;;;19.13;100;98346.45;;;;
2021/07/18 02:24:20;;;;;;;15;6.7;;;;;;;19.04;100;98349.47;;;;
2021/07/18 02:34:20;;;;;;;12.4;8;;;;;;;18.85;100;98348.77;;;;
2021/07/18 02:44:20;;;;;;;9.7;8.6;;;;;;;18.83;100;98365.53;;;;
2021/07/18 02:54:20;;;;;;;10.2;7;;;;;;;18.82;100;98331.19;;;;
2021/07/18 03:04:20;;;;;;;9.2;7.2;;;;;;;18.88;100;98318.78;;;;
2021/07/18 03:14:20;;;;;;;9.2;6.5;;;;;;;19.19;100;98303.22;;;;
2021/07/18 03:24:20;;;;;;;11.2;5.6;;;;;;;19.39;100;98316.37;;;;
2021/07/18 03:34:20;;;;;;;10.6;5.3;;;;;;;19.62;100;98321.73;;;;
2021/07/18 03:44:20;;;;;;;9.2;7.4;;;;;;;19.72;100;98318.33;;;;
2021/07/18 03:54:20;;;;;;;12.5;5.6;;;;;;;19.81;100;98323.52;;;;
2021/07/18 04:04:20;;;;;;;9.2;5;;;;;;;19.98;100;98340.12;;;;
2021/07/18 04:14:20;;;;;;;11.7;6.2;;;;;;;20.19;100;98355.96;;;;
2021/07/18 04:24:20;;;;;;;10.1;6.9;;;;;;;20.33;100;98355.34;;;;
2021/07/18 04:34:21;;;;;;;7.7;6.1;;;;;;;20.57;100;98361.03;;;;
2021/07/18 04:44:21;;;;;;;20.9;11.3;;;;;;;20.81;100;98358.86;;;;
2021/07/18 04:54:21;;;;;;;15.2;10;;;;;;;20.96;100;98366.78;;;;
2021/07/18 05:04:21;;;;;;;12.8;9.9;;;;;;;21.27;100;98362.73;;;;
2021/07/18 05:14:21;;;;;;;15;12;;;;;;;21.73;100;98370.39;;;;
2021/07/18 05:24:22;;;;;;;15.2;13;;;;;;;21.96;100;98362.64;;;;
2021/07/18 05:34:22;;;;;;;20;15.8;;;;;;;22.21;100;98373.69;;;;
2021/07/18 05:44:23;;;;;;;27.7;16.4;;;;;;;22.06;100;98389.34;;;;
2021/07/18 05:54:23;;;;;;;19;16.3;;;;;;;22.55;100;98391.39;;;;
2021/07/18 06:04:24;;;;;;;21.3;19.1;;;;;;;22.8;100;98392.22;;;;
2021/07/18 06:14:24;;;;;;;19.1;17;;;;;;;22.3;100;98407.04;;;;
2021/07/18 06:24:25;;;;;;;27.3;18;;;;;;;22.42;100;98398.44;;;;
2021/07/18 06:34:25;;;;;;;20.3;17.8;;;;;;;22.32;100;98418.44;;;;
2021/07/18 06:44:26;;;;;;;23.9;16.9;;;;;;;22.71;100;98407.5;;;;
2021/07/18 06:54:26;;;;;;;23.6;17.7;;;;;;;23.66;100;98426.67;;;;
2021/07/18 07:04:27;;;;;;;21.7;18.6;;;;;;;23.32;100;98434.59;;;;
2021/07/18 07:14:27;;;;;;;21.4;16.2;;;;;;;23.65;100;98422.34;;;;
2021/07/18 07:24:28;;;;;;;20.2;16.8;;;;;;;23.29;100;98431.84;;;;
2021/07/18 07:34:29;;;;;;;22.7;17.9;;;;;;;23.68;100;98424.3;;;;
2021/07/18 07:44:29;;;;;;;17.6;15.4;;;;;;;23.44;100;98433.41;;;;
2021/07/18 07:54:30;;;;;;;17.3;15.1;;;;;;;23.52;100;98432.22;;;;
2021/07/18 08:04:31;;;;;;;20.3;13.8;;;;;;;23.84;100;98445.89;;;;
2021/07/18 08:14:31;;;;;;;17.5;13.7;;;;;;;24.68;100;98430.89;;;;
2021/07/18 08:24:32;;;;;;;16.9;13;;;;;;;25.2;100;98420.64;;;;
2021/07/18 08:34:33;;;;;;;16.8;12.2;;;;;;;25.41;100;98425.95;;;;
2021/07/18 08:44:34;;;;;;;20.8;14.8;;;;;;;25.24;100;98442.67;;;;
2021/07/18 08:54:36;;;;;;;15.9;13.5;;;;;;;24.87;100;98441.42;;;;
2021/07/18 09:04:36;;;;;;;20.5;15.5;;;;;;;24.85;100;98454.81;;;;
2021/07/18 09:14:39;;;;;;;19.9;17.6;;;;;;;24.93;100;98447.28;;;;
2021/07/18 09:24:39;;;;;;;19.2;14.6;;;;;;;25.73;100;98435.9;;;;
2021/07/18 09:34:39;;;;;;;17.5;15.1;;;;;;;26.1;100;98451.66;;;;
2021/07/18 09:44:46;;;;;;;17.3;14.9;;;;;;;25.03;100;98455.47;;;;
2021/07/18 09:54:41;;;;;;;18.2;14.9;;;;;;;25.12;100;98446.74;;;;
2021/07/18 10:04:41;;;;;;;19.1;15.2;;;;;;;25.37;100;98439;;;;
2021/07/18 10:14:42;;;;;;;15.4;12.2;;;;;;;25.46;100;98438.53;;;;
2021/07/18 10:24:43;;;;;;;14.2;11.6;;;;;;;24.95;100;98455.95;;;;
2021/07/18 10:34:45;;;;;;;15.8;14.1;;;;;;;24.74;100;98442.28;;;;
2021/07/18 10:44:47;;;;;;;16.7;13.5;;;;;;;24.22;100;98449.69;;;;
2021/07/18 10:54:46;;;;;;;17.6;15.8;;;;;;;23.33;100;98446.36;;;;
2021/07/18 11:04:46;;;;;;;19.1;16;;;;;;;23.32;100;98450.3;;;;
2021/07/18 11:14:47;;;;;;;27;18.9;;;;;;;23.32;100;98447.55;;;;
2021/07/18 11:24:55;;;;;;;22.4;16.9;;;;;;;23.63;100;98432.98;;;;
2021/07/18 11:34:48;;;;;;;18.3;16.4;;;;;;;23.7;100;98443.17;;;;
2021/07/18 11:44:49;;;;;;;18.9;16.4;;;;;;;24.13;100;98443.81;;;;
2021/07/18 11:54:50;;;;;;;15.7;12.5;;;;;;;24.33;100;98462.2;;;;
2021/07/18 12:04:50;;;;;;;15.1;12.1;;;;;;;24.29;100;98419.36;;;;
2021/07/18 12:14:51;;;;;;;14.6;11.8;;;;;;;24.81;100;98400.89;;;;
2021/07/18 12:24:53;;;;;;;14.1;12.4;;;;;;;25.09;100;98386.09;;;;
2021/07/18 12:34:53;;;;;;;15.9;14.2;;;;;;;25.71;100;98375.59;;;;
2021/07/18 12:44:54;;;;;;;15.2;13.6;;;;;;;25.43;100;98378.65;;;;
2021/07/18 12:54:55;;;;;;;19.6;14.6;;;;;;;25.07;100;98391.22;;;;
2021/07/18 13:04:56;;;;;;;17.5;14.9;;;;;;;24.97;100;98412.2;;;;
2021/07/18 13:14:56;;;;;;;21;16.1;;;;;;;25.36;100;98412.63;;;;
2021/07/18 13:24:58;;;;;;;19.1;15;;;;;;;25.28;100;98382.73;;;;
2021/07/18 13:34:58;;;;;;;18.9;12.8;;;;;;;24.82;100;98389.44;;;;
2021/07/18 13:44:59;;;;;;;19.7;13.6;;;;;;;24.49;100;98366.09;;;;
2021/07/18 13:55:00;;;;;;;19.8;14.8;;;;;;;25.26;100;98347.3;;;;
2021/07/18 14:05:01;;;;;;;18.9;14.1;;;;;;;25.4;100;98347.15;;;;
2021/07/18 14:15:02;;;;;;;15.1;11.7;;;;;;;25.95;100;98335.05;;;;
2021/07/18 14:25:03;;;;;;;20.7;17.3;;;;;;;27.06;100;98337.67;;;;
2021/07/18 14:35:04;;;;;;;18.1;15.2;;;;;;;27.62;100;98347.68;;;;
2021/07/18 14:45:05;;;;;;;17.3;12.8;;;;;;;28.52;100;98352.84;;;;
2021/07/18 14:55:06;;;;;;;16.8;14.3;;;;;;;28.3;100;98369.97;;;;
2021/07/18 15:05:08;;;;;;;17.9;14.8;;;;;;;28.47;100;98362.45;;;;
2021/07/18 15:15:09;;;;;;;18.7;14.6;;;;;;;28.06;100;98362.96;;;;
2021/07/18 15:25:10;;;;;;;17.5;12;;;;;;;27.68;100;98362.58;;;;
2021/07/18 15:35:11;;;;;;;15.1;11.9;;;;;;;27.65;100;98362.66;;;;
2021/07/18 15:45:13;;;;;;;17.2;14.1;;;;;;;27.33;100;98366.02;;;;
2021/07/18 15:55:14;;;;;;;23.6;13.5;;;;;;;27.14;100;98384.17;;;;
2021/07/18 16:05:15;;;;;;;19.6;13.1;;;;;;;26.55;100;98381.17;;;;
2021/07/18 16:15:16;;;;;;;17;14.6;;;;;;;26.35;100;98352.64;;;;
2021/07/18 16:25:17;;;;;;;21.6;12.7;;;;;;;26.05;100;98347.92;;;;
2021/07/18 16:35:19;;;;;;;15;12.9;;;;;;;25.78;100;98375.51;;;;
2021/07/18 16:45:20;;;;;;;19.9;12.5;;;;;;;25.65;100;98385.5;;;;
2021/07/18 16:55:20;;;;;;;14.1;12;;;;;;;25.38;100;98366.08;;;;
2021/07/18 17:05:21;;;;;;;11.2;9;;;;;;;24.56;100;98387.3;;;;
2021/07/18 17:15:22;;;;;;;9.3;6;;;;;;;23.46;100;98395.3;;;;
2021/07/18 17:25:23;;;;;;;10.9;7.2;;;;;;;23.08;100;98372.17;;;;
2021/07/18 17:35:23;;;;;;;10.6;6.8;;;;;;;22.65;100;98381.58;;;;
2021/07/18 17:45:25;;;;;;;11.8;7.8;;;;;;;22.71;100;98388.27;;;;
2021/07/18 17:55:24;;;;;;;7.7;6;;;;;;;22.6;100;98385.48;;;;
2021/07/18 18:05:25;;;;;;;10.1;7.3;;;;;;;22.38;100;98384.7;;;;
2021/07/18 18:15:27;;;;;;;10.9;6;;;;;;;21.69;100;98373.12;;;;
2021/07/18 18:25:26;;;;;;;9.2;5.7;;;;;;;21.25;100;98364.26;;;;
2021/07/18 18:35:26;;;;;;;10.2;7;;;;;;;20.75;100;98354.91;;;;
2021/07/18 18:45:27;;;;;;;11;7.7;;;;;;;20.4;100;98361.67;;;;
2021/07/18 18:55:27;;;;;;;10.4;7.5;;;;;;;20.4;100;98352.66;;;;
2021/07/18 19:05:27;;;;;;;12.1;7.9;;;;;;;20.44;100;98372.66;;;;
2021/07/18 19:15:27;;;;;;;11.6;8.4;;;;;;;20.43;100;98382.02;;;;
2021/07/18 19:25:28;;;;;;;10.5;8.3;;;;;;;20.37;100;98394.48;;;;
2021/07/18 19:35:28;;;;;;;16.6;8.7;;;;;;;20.29;100;98395.56;;;;
2021/07/18 19:45:28;;;;;;;13.6;9.6;;;;;;;20.31;100;98385.81;;;;
2021/07/18 19:55:28;;;;;;;12.4;10.3;;;;;;;20.26;100;98399.03;;;;
2021/07/18 20:05:28;;;;;;;12.5;9.5;;;;;;;20.33;100;98390.92;;;;
2021/07/18 20:15:29;;;;;;;11.5;9.4;;;;;;;20.31;100;98387.75;;;;
2021/07/18 20:25:29;;;;;;;14.5;10.3;;;;;;;20.2;100;98376.67;;;;
2021/07/18 20:35:29;;;;;;;14;10;;;;;;;20.17;100;98373.89;;;;
2021/07/18 20:45:29;;;;;;;16.8;10.5;;;;;;;20.01;100;98377.66;;;;
2021/07/18 20:55:29;;;;;;;16.2;11.7;;;;;;;19.96;100;98380.72;;;;
2021/07/18 21:05:29;;;;;;;11.3;10;;;;;;;19.81;100;98376.27;;;;
2021/07/18 21:15:29;;;;;;;13.4;9.1;;;;;;;19.56;100;98370.5;;;;
2021/07/18 21:25:29;;;;;;;13.7;10.3;;;;;;;19.67;100;98378.83;;;;
2021/07/18 21:35:30;;;;;;;18.3;11.2;;;;;;;19.66;100;98385.45;;;;
2021/07/18 21:45:30;;;;;;;13.9;9.9;;;;;;;19.79;100;98394.98;;;;
2021/07/18 21:55:30;;;;;;;14.1;9.1;;;;;;;19.87;100;98404.06;;;;
2021/07/18 22:05:30;;;;;;;13.5;10.3;;;;;;;19.9;100;98414.25;;;;
2021/07/18 22:15:30;;;;;;;13.1;10;;;;;;;19.94;100;98426.03;;;;
2021/07/18 22:25:30;;;;;;;13.4;9.5;;;;;;;20.06;100;98437.5;;;;
2021/07/18 22:35:32;;;;;;;12.7;10.1;;;;;;;20.06;100;98440.24;;;;
2021/07/18 22:45:30;;;;;;;13.9;10.4;;;;;;;19.96;100;98434.64;;;;
2021/07/18 22:55:31;;;;;;;13.2;9.5;;;;;;;19.95;100;98439.35;;;;
2021/07/18 23:05:31;;;;;;;10.2;8.2;;;;;;;20.19;100;98423.58;;;;
2021/07/18 23:15:31;;;;;;;12.7;9;;;;;;;20.22;100;98425.56;;;;
2021/07/18 23:25:31;;;;;;;12.5;8.6;;;;;;;20.26;100;98420.92;;;;
2021/07/18 23:35:31;;;;;;;16.7;9.4;;;;;;;20.26;100;98426.4;;;;
2021/07/18 23:45:31;;;;;;;13.7;9;;;;;;;20.33;100;98426.5;;;;
2021/07/18 23:55:32;;;;;;;11.1;9.7;;;;;;;20.41;100;98433.63;;;;
